createdAt,value
2023-02-23T00:02:07.292Z,31.35
2023-02-23T00:04:38.166Z,23.63
2023-02-23T00:07:06.437Z,21.05
2023-02-23T00:09:36.703Z,31.95
2023-02-23T00:12:09.203Z,28.23
2023-02-23T00:14:38.413Z,26.00
2023-02-23T00:17:14.189Z,26.88
2023-02-23T00:19:43.392Z,28.00
2023-02-23T00:22:10.515Z,23.42
2023-02-23T00:24:38.773Z,24.92
2023-02-23T00:27:06.737Z,23.83
2023-02-23T00:29:39.344Z,29.08
2023-02-23T00:32:07.252Z,22.90
2023-02-23T00:34:37.101Z,27.92
2023-02-23T00:37:04.719Z,26.95
2023-02-23T00:39:31.678Z,28.40
2023-02-23T00:42:02.935Z,30.27
2023-02-23T00:44:30.653Z,31.08
2023-02-23T00:46:58.063Z,32.70
2023-02-23T00:49:25.322Z,26.35
2023-02-23T00:51:52.700Z,31.23
2023-02-23T00:54:22.077Z,27.77
2023-02-23T00:56:49.748Z,38.05
2023-02-23T00:59:17.279Z,28.27
2023-02-23T01:01:44.942Z,32.72
2023-02-23T01:04:13.072Z,28.90
2023-02-23T01:06:41.386Z,27.45
2023-02-23T01:09:13.446Z,27.25
2023-02-23T01:11:41.482Z,28.42
2023-02-23T01:14:11.074Z,30.42
2023-02-23T01:16:38.821Z,25.95
2023-02-23T01:19:06.492Z,26.27
2023-02-23T01:21:37.232Z,24.45
2023-02-23T01:24:05.096Z,24.77
2023-02-23T01:26:42.398Z,24.08
2023-02-23T01:29:16.658Z,29.05
2023-02-23T01:31:47.965Z,25.67
2023-02-23T01:34:21.642Z,31.70
2023-02-23T01:36:49.036Z,27.40
2023-02-23T01:39:20.588Z,30.30
2023-02-23T01:41:47.711Z,27.63
2023-02-23T01:44:15.126Z,32.80
2023-02-23T01:46:45.716Z,31.17
2023-02-23T01:49:20.314Z,30.08
2023-02-23T01:51:55.660Z,31.45
2023-02-23T01:54:29.093Z,31.92
2023-02-23T01:57:00.504Z,29.45
2023-02-23T01:59:36.254Z,31.67
2023-02-23T02:02:05.229Z,31.00
2023-02-23T02:04:43.977Z,30.38
2023-02-23T02:07:22.879Z,30.98
2023-02-23T02:10:11.358Z,27.98
2023-02-23T02:12:55.372Z,30.98
2023-02-23T02:15:26.262Z,32.47
2023-02-23T02:18:03.149Z,33.47
2023-02-23T02:20:54.053Z,30.65
2023-02-23T02:24:01.236Z,26.98
2023-02-23T02:27:32.553Z,30.08
2023-02-23T02:31:08.722Z,30.10
2023-02-23T02:34:03.640Z,27.23
2023-02-23T02:36:39.230Z,26.48
2023-02-23T02:39:10.483Z,33.33
2023-02-23T02:41:53.539Z,30.85
2023-02-23T02:44:46.712Z,30.95
2023-02-23T02:47:42.528Z,33.78
2023-02-23T02:50:17.664Z,36.17
2023-02-23T02:52:59.598Z,29.60
2023-02-23T02:55:34.124Z,24.00
2023-02-23T02:58:08.018Z,27.92
2023-02-23T03:00:58.147Z,36.63
2023-02-23T03:03:57.612Z,23.25
2023-02-23T03:06:52.881Z,32.80
2023-02-23T03:10:06.267Z,26.35
2023-02-23T03:13:21.234Z,31.55
2023-02-23T03:16:26.235Z,26.20
2023-02-23T03:19:45.210Z,27.25
2023-02-23T03:22:47.039Z,24.38
2023-02-23T03:25:48.365Z,29.15
2023-02-23T03:28:37.374Z,29.88
2023-02-23T03:31:48.540Z,24.13
2023-02-23T03:34:42.383Z,27.17
2023-02-23T03:37:44.131Z,26.92
2023-02-23T03:40:41.095Z,28.02
2023-02-23T03:43:32.760Z,30.45
2023-02-23T03:46:21.724Z,31.83
2023-02-23T03:49:09.705Z,26.42
2023-02-23T03:52:01.019Z,31.40
2023-02-23T03:54:53.413Z,28.58
2023-02-23T03:57:41.422Z,27.90
2023-02-23T04:00:36.906Z,34.20
2023-02-23T04:03:25.918Z,30.52
2023-02-23T04:06:13.179Z,25.38
2023-02-23T04:08:59.553Z,26.98
2023-02-23T04:12:12.007Z,30.77
2023-02-23T04:15:01.960Z,29.45
2023-02-23T04:17:30.017Z,33.25
2023-02-23T04:19:57.415Z,33.10
2023-02-23T04:22:25.175Z,29.90
2023-02-23T04:24:52.082Z,31.88
2023-02-23T04:27:19.824Z,28.60
2023-02-23T04:29:47.231Z,31.83
2023-02-23T04:32:18.118Z,30.60
2023-02-23T04:34:45.591Z,30.33
2023-02-23T04:37:13.679Z,28.85
2023-02-23T04:39:42.677Z,28.45
2023-02-23T04:42:10.125Z,36.10
2023-02-23T04:44:37.070Z,31.27
2023-02-23T04:47:04.225Z,30.92
2023-02-23T04:49:31.075Z,33.10
2023-02-23T04:51:58.244Z,27.48
2023-02-23T04:54:25.772Z,31.25
2023-02-23T04:56:52.938Z,29.30
2023-02-23T04:59:19.974Z,33.95
2023-02-23T05:01:47.014Z,29.13
2023-02-23T05:04:13.878Z,28.50
2023-02-23T05:06:40.897Z,34.13
2023-02-23T05:09:07.925Z,31.45
2023-02-23T05:11:35.069Z,24.30
2023-02-23T05:14:01.932Z,31.30
2023-02-23T05:16:28.957Z,28.10
2023-02-23T05:18:56.100Z,29.45
2023-02-23T05:21:23.603Z,29.85
2023-02-23T05:23:51.059Z,29.73
2023-02-23T05:26:18.803Z,30.00
2023-02-23T05:28:45.753Z,30.70
2023-02-23T05:31:13.140Z,24.98
2023-02-23T05:33:42.676Z,30.35
2023-02-23T05:36:17.389Z,31.15
2023-02-23T05:38:46.351Z,27.92
2023-02-23T05:41:17.862Z,29.77
2023-02-23T05:43:45.299Z,28.17
2023-02-23T05:46:16.808Z,29.30
2023-02-23T05:48:43.958Z,32.22
2023-02-23T05:51:14.826Z,29.20
2023-02-23T05:53:42.314Z,33.50
2023-02-23T05:56:20.148Z,26.67
2023-02-23T05:58:52.897Z,31.38
2023-02-23T06:01:21.819Z,29.90
2023-02-23T06:03:49.409Z,26.70
2023-02-23T06:06:17.793Z,31.73
2023-02-23T06:08:45.177Z,27.15
2023-02-23T06:11:12.960Z,31.45
2023-02-23T06:13:40.224Z,26.15
2023-02-23T06:16:08.616Z,31.42
2023-02-23T06:18:36.247Z,29.02
2023-02-23T06:21:04.326Z,29.67
2023-02-23T06:23:33.024Z,31.30
2023-02-23T06:26:00.376Z,27.40
2023-02-23T06:28:28.433Z,30.75
2023-02-23T06:30:56.334Z,31.85
2023-02-23T06:33:23.790Z,27.98
2023-02-23T06:35:50.899Z,33.33
2023-02-23T06:38:18.318Z,30.77
2023-02-23T06:40:45.216Z,36.00
2023-02-23T06:43:12.512Z,29.35
2023-02-23T06:45:40.763Z,27.73
2023-02-23T06:48:08.490Z,34.85
2023-02-23T06:50:35.659Z,27.70
2023-02-23T06:53:02.718Z,28.27
2023-02-23T06:55:29.593Z,38.67
2023-02-23T06:57:56.799Z,31.10
2023-02-23T07:00:24.291Z,32.00
2023-02-23T07:02:51.390Z,27.92
2023-02-23T07:05:18.753Z,29.27
2023-02-23T07:07:46.469Z,33.90
2023-02-23T07:10:13.836Z,28.45
2023-02-23T07:12:40.847Z,30.20
2023-02-23T07:15:08.828Z,33.85
2023-02-23T07:17:36.288Z,31.88
2023-02-23T07:20:03.871Z,27.65
2023-02-23T07:22:30.767Z,35.72
2023-02-23T07:24:57.977Z,27.40
2023-02-23T07:27:27.512Z,39.92
2023-02-23T07:29:54.558Z,35.05
2023-02-23T07:32:21.997Z,29.42
2023-02-23T07:34:49.175Z,25.42
2023-02-23T07:37:17.197Z,30.85
2023-02-23T07:39:44.383Z,28.58
2023-02-23T07:42:11.473Z,34.08
2023-02-23T07:44:39.317Z,30.70
2023-02-23T07:47:07.420Z,30.65
2023-02-23T07:49:34.764Z,30.58
2023-02-23T07:52:01.898Z,32.22
2023-02-23T07:54:28.971Z,27.25
2023-02-23T07:56:56.636Z,41.38
2023-02-23T07:59:23.803Z,30.98
2023-02-23T08:01:52.103Z,34.28
2023-02-23T08:04:19.134Z,31.52
2023-02-23T08:06:46.275Z,36.92
2023-02-23T08:09:14.370Z,27.67
2023-02-23T08:11:41.561Z,32.92
2023-02-23T08:14:10.367Z,29.15
2023-02-23T08:16:37.785Z,27.73
2023-02-23T08:19:04.734Z,26.70
2023-02-23T08:21:31.939Z,31.45
2023-02-23T08:23:59.143Z,30.83
2023-02-23T08:26:26.588Z,31.65
2023-02-23T08:28:54.744Z,34.65
2023-02-23T08:31:24.192Z,24.63
2023-02-23T08:33:53.026Z,29.73
2023-02-23T08:36:23.380Z,33.95
2023-02-23T08:38:50.699Z,36.50
2023-02-23T08:41:18.359Z,30.35
2023-02-23T08:43:45.659Z,26.67
2023-02-23T08:46:13.358Z,28.75
2023-02-23T08:48:40.661Z,29.63
2023-02-23T08:51:08.846Z,33.92
2023-02-23T08:53:36.350Z,31.42
2023-02-23T08:56:06.265Z,28.92
2023-02-23T08:58:35.894Z,35.63
2023-02-23T09:01:03.360Z,31.33
2023-02-23T09:03:30.870Z,39.63
2023-02-23T09:06:10.578Z,32.72
2023-02-23T09:08:38.290Z,26.55
2023-02-23T09:11:06.159Z,26.63
2023-02-23T09:13:33.366Z,29.05
2023-02-23T09:16:00.431Z,31.58
2023-02-23T09:18:29.441Z,28.80
2023-02-23T09:20:57.376Z,32.33
2023-02-23T09:23:29.452Z,29.50
2023-02-23T09:25:56.348Z,34.03
2023-02-23T09:28:23.332Z,21.20
2023-02-23T09:30:50.334Z,29.20
2023-02-23T09:33:18.267Z,29.88
2023-02-23T09:35:45.303Z,30.10
2023-02-23T09:38:12.220Z,27.73
2023-02-23T09:40:53.565Z,27.38
2023-02-23T09:43:42.378Z,28.85
2023-02-23T09:47:03.457Z,29.48
2023-02-23T09:49:34.782Z,34.25
2023-02-23T09:52:03.968Z,36.65
2023-02-23T09:54:34.689Z,37.47
2023-02-23T09:57:12.452Z,26.92
2023-02-23T09:59:40.007Z,31.33
2023-02-23T10:02:34.793Z,34.78
2023-02-23T10:05:11.546Z,35.10
2023-02-23T10:07:56.362Z,30.70
2023-02-23T10:10:47.821Z,35.97
2023-02-23T10:13:40.478Z,34.08
2023-02-23T10:16:24.347Z,29.75
2023-02-23T10:19:05.854Z,37.03
2023-02-23T10:21:51.186Z,32.50
2023-02-23T10:24:30.551Z,25.65
2023-02-23T10:27:10.142Z,25.90
2023-02-23T10:29:51.394Z,26.58
2023-02-23T10:32:48.201Z,23.90
2023-02-23T10:35:20.964Z,26.20
2023-02-23T10:37:50.063Z,29.92
2023-02-23T10:40:22.036Z,24.52
2023-02-23T10:42:49.740Z,24.23
2023-02-23T10:45:24.535Z,26.60
2023-02-23T10:48:01.235Z,24.80
2023-02-23T10:53:10.689Z,23.88
2023-02-23T10:55:37.734Z,23.67
2023-02-23T10:58:19.451Z,24.48
2023-02-23T11:00:59.217Z,26.67
2023-02-23T11:04:05.468Z,25.48
2023-02-23T11:06:42.198Z,25.50
2023-02-23T11:12:24.212Z,21.20
2023-02-23T11:14:54.966Z,24.65
2023-02-23T11:17:29.246Z,27.42
2023-02-23T11:20:23.175Z,22.80
2023-02-23T11:22:52.172Z,23.67
2023-02-23T11:25:30.021Z,24.17
2023-02-23T11:27:58.051Z,26.70
2023-02-23T11:30:32.547Z,27.30
2023-02-23T11:33:10.676Z,22.83
2023-02-23T11:35:39.070Z,27.40
2023-02-23T11:38:20.581Z,27.33
2023-02-23T11:41:12.862Z,25.52
2023-02-23T11:43:50.060Z,25.92
2023-02-23T11:46:20.237Z,27.02
2023-02-23T11:49:00.137Z,29.23
2023-02-23T11:51:41.017Z,24.85
2023-02-23T11:54:25.384Z,26.38
2023-02-23T11:56:55.349Z,24.77
2023-02-23T11:59:38.523Z,27.85
2023-02-23T12:02:05.448Z,30.55
2023-02-23T12:04:38.635Z,27.63
2023-02-23T12:07:56.952Z,32.40
2023-02-23T12:10:40.647Z,26.27
2023-02-23T12:13:32.656Z,24.90
2023-02-23T12:16:16.579Z,28.60
2023-02-23T12:19:17.706Z,26.90
2023-02-23T12:21:59.397Z,26.70
2023-02-23T12:24:44.991Z,26.77
2023-02-23T12:27:27.218Z,29.33
2023-02-23T12:30:35.567Z,30.30
2023-02-23T12:33:16.254Z,28.08
2023-02-23T12:36:00.473Z,28.00
2023-02-23T12:39:27.338Z,26.77
2023-02-23T12:42:13.172Z,28.90
2023-02-23T12:44:53.510Z,27.48
2023-02-23T12:47:32.541Z,27.65
2023-02-23T12:50:21.081Z,28.50
2023-02-23T12:53:43.224Z,29.02
2023-02-23T12:56:14.965Z,41.80
2023-02-23T12:59:14.288Z,30.85
2023-02-23T13:02:13.116Z,33.20
2023-02-23T13:04:48.885Z,28.92
2023-02-23T13:08:12.439Z,32.33
2023-02-23T13:10:50.340Z,32.58
2023-02-23T13:13:38.184Z,33.38
2023-02-23T13:16:30.699Z,26.60
2023-02-23T13:19:24.579Z,33.17
2023-02-23T13:22:00.953Z,26.45
2023-02-23T13:24:43.011Z,25.33
2023-02-23T13:27:29.972Z,27.63
2023-02-23T13:29:59.101Z,29.90
2023-02-23T13:32:32.014Z,30.15
2023-02-23T13:35:15.792Z,32.08
2023-02-23T13:37:52.061Z,34.40
2023-02-23T13:40:36.679Z,28.40
2023-02-23T13:43:47.306Z,27.15
2023-02-23T13:46:45.808Z,32.38
2023-02-23T13:50:02.348Z,29.73
2023-02-23T13:52:33.742Z,28.50
2023-02-23T13:55:05.379Z,32.15
2023-02-23T13:57:33.016Z,29.20
2023-02-23T14:00:00.769Z,30.80
2023-02-23T14:02:34.402Z,28.50
2023-02-23T14:05:24.934Z,30.08
2023-02-23T14:08:02.299Z,29.30
2023-02-23T14:10:37.259Z,28.52
2023-02-23T14:13:13.060Z,29.67
2023-02-23T14:15:41.809Z,28.80
2023-02-23T14:18:20.901Z,33.97
2023-02-23T14:21:29.156Z,27.98
2023-02-23T14:24:22.207Z,29.77
2023-02-23T14:27:06.153Z,31.10
2023-02-23T14:29:44.470Z,30.75
2023-02-23T14:32:11.547Z,34.42
2023-02-23T14:35:01.968Z,32.75
2023-02-23T14:37:40.190Z,33.47
2023-02-23T14:40:23.253Z,33.90
2023-02-23T14:42:53.281Z,30.30
2023-02-23T14:45:31.180Z,30.25
2023-02-23T14:48:06.030Z,31.00
2023-02-23T14:50:36.216Z,34.28
2023-02-23T14:53:07.129Z,30.60
2023-02-23T14:55:37.870Z,30.35
2023-02-23T14:58:24.321Z,30.65
2023-02-23T15:00:52.024Z,32.50
2023-02-23T15:03:19.313Z,28.02
2023-02-23T15:05:59.551Z,36.97
2023-02-23T15:08:29.367Z,38.83
2023-02-23T15:11:08.114Z,33.15
2023-02-23T15:13:39.793Z,34.15
2023-02-23T15:16:29.108Z,38.67
2023-02-23T15:18:59.179Z,37.28
2023-02-23T15:21:26.463Z,42.63
2023-02-23T15:24:11.018Z,44.28
2023-02-23T15:26:41.230Z,41.97
2023-02-23T15:29:13.437Z,38.95
2023-02-23T15:31:50.239Z,37.45
2023-02-23T15:34:23.535Z,41.13
2023-02-23T15:37:25.013Z,41.55
2023-02-23T15:40:05.994Z,44.78
2023-02-23T15:42:39.227Z,47.90
2023-02-23T15:45:22.149Z,40.97
2023-02-23T15:47:54.462Z,43.78
2023-02-23T15:50:42.548Z,48.17
2023-02-23T15:53:36.348Z,50.88
2023-02-23T15:56:28.083Z,44.53
2023-02-23T15:59:13.870Z,44.45
2023-02-23T16:01:45.659Z,47.13
2023-02-23T16:04:12.761Z,45.58
2023-02-23T16:06:51.026Z,48.63
2023-02-23T16:09:21.121Z,47.50
2023-02-23T16:12:02.200Z,47.58
2023-02-23T16:14:55.445Z,47.78
2023-02-23T16:17:44.538Z,46.25
2023-02-23T16:20:47.758Z,53.92
2023-02-23T16:23:34.344Z,54.47
2023-02-23T16:26:12.232Z,50.70
2023-02-23T16:28:45.423Z,46.05
2023-02-23T16:31:22.889Z,52.53
2023-02-23T16:33:59.818Z,51.97
2023-02-23T16:36:39.795Z,50.38
2023-02-23T16:39:13.146Z,51.00
2023-02-23T16:41:40.272Z,52.10
2023-02-23T16:44:16.048Z,49.40
2023-02-23T16:47:05.452Z,51.42
2023-02-23T16:49:32.588Z,56.35
2023-02-23T16:52:01.468Z,54.92
2023-02-23T16:54:28.443Z,53.33
2023-02-23T16:56:56.131Z,56.47
2023-02-23T16:59:24.079Z,52.85
2023-02-23T17:01:51.218Z,58.38
2023-02-23T17:04:20.949Z,57.67
2023-02-23T17:06:57.475Z,56.05
2023-02-23T17:09:25.277Z,52.03
2023-02-23T17:11:52.364Z,54.03
2023-02-23T17:14:27.373Z,57.30
2023-02-23T17:16:54.628Z,57.05
2023-02-23T17:19:23.625Z,58.35
2023-02-23T17:21:52.622Z,64.57
2023-02-23T17:24:19.665Z,62.50
2023-02-23T17:26:46.715Z,65.82
2023-02-23T17:29:13.560Z,60.33
2023-02-23T17:31:40.907Z,65.88
2023-02-23T17:34:08.210Z,67.15
2023-02-23T17:36:35.260Z,68.63
2023-02-23T17:39:02.489Z,65.28
2023-02-23T17:41:29.521Z,69.65
2023-02-23T17:43:56.428Z,66.85
2023-02-23T17:46:24.013Z,66.60
2023-02-23T17:48:51.162Z,70.30
2023-02-23T17:51:21.558Z,70.53
2023-02-23T17:53:48.796Z,68.60
2023-02-23T17:56:20.421Z,73.00
2023-02-23T17:58:48.202Z,76.88
2023-02-23T18:01:16.330Z,66.82
2023-02-23T18:03:43.618Z,67.28
2023-02-23T18:06:13.294Z,66.60
2023-02-23T18:08:45.212Z,67.45
2023-02-23T18:11:12.517Z,66.68
2023-02-23T18:13:40.302Z,68.78
2023-02-23T18:16:11.761Z,64.68
2023-02-23T18:18:41.771Z,74.18
2023-02-23T18:21:14.825Z,63.58
2023-02-23T18:23:42.186Z,68.85
2023-02-23T18:26:16.336Z,67.25
2023-02-23T18:28:47.047Z,65.25
2023-02-23T18:31:21.767Z,70.50
2023-02-23T18:33:55.159Z,65.90
2023-02-23T18:36:36.057Z,70.10
2023-02-23T18:39:07.287Z,71.82
2023-02-23T18:41:34.568Z,72.45
2023-02-23T18:44:05.685Z,71.65
2023-02-23T18:46:32.947Z,68.28
2023-02-23T18:49:00.652Z,70.90
2023-02-23T18:51:28.211Z,75.32
2023-02-23T18:53:55.917Z,67.15
2023-02-23T18:56:28.027Z,65.93
2023-02-23T18:59:01.418Z,72.90
2023-02-23T19:01:33.316Z,72.95
2023-02-23T19:04:02.675Z,78.38
2023-02-23T19:06:31.056Z,71.22
2023-02-23T19:09:00.179Z,67.50
2023-02-23T19:11:33.805Z,66.20
2023-02-23T19:14:07.920Z,65.22
2023-02-23T19:16:36.411Z,62.25
2023-02-23T19:19:07.108Z,61.42
2023-02-23T19:21:35.844Z,56.38
2023-02-23T19:24:04.675Z,56.15
2023-02-23T19:26:33.633Z,55.97
2023-02-23T19:29:00.892Z,56.97
2023-02-23T19:31:28.740Z,60.13
2023-02-23T19:33:57.282Z,65.82
2023-02-23T19:36:30.780Z,59.38
2023-02-23T19:39:11.184Z,60.63
2023-02-23T19:41:39.906Z,63.90
2023-02-23T19:44:07.337Z,60.90
2023-02-23T19:46:35.187Z,60.30
2023-02-23T19:49:03.230Z,59.15
2023-02-23T19:51:30.548Z,57.65
2023-02-23T19:53:58.663Z,54.10
2023-02-23T19:56:28.091Z,53.35
2023-02-23T19:58:57.344Z,55.13
2023-02-23T20:01:27.735Z,56.53
2023-02-23T20:03:55.280Z,51.53
2023-02-23T20:06:26.223Z,52.70
2023-02-23T20:08:54.946Z,48.50
2023-02-23T20:11:23.244Z,51.15
2023-02-23T20:13:53.519Z,52.90
2023-02-23T20:16:21.294Z,44.42
2023-02-23T20:18:48.249Z,51.92
2023-02-23T20:21:20.113Z,48.60
2023-02-23T20:23:47.705Z,41.20
2023-02-23T20:26:40.967Z,40.38
2023-02-23T20:29:16.731Z,36.25
2023-02-23T20:31:51.311Z,34.83
2023-02-23T20:34:24.452Z,32.50
2023-02-23T20:36:52.591Z,37.72
2023-02-23T20:39:19.965Z,36.83
2023-02-23T20:41:47.794Z,41.65
2023-02-23T20:44:16.004Z,45.95
2023-02-23T20:46:44.570Z,45.45
2023-02-23T20:49:13.113Z,44.72
2023-02-23T20:51:46.366Z,46.97
2023-02-23T20:54:14.732Z,49.35
2023-02-23T20:56:42.615Z,43.22
2023-02-23T20:59:11.825Z,52.10
2023-02-23T21:01:44.117Z,53.17
2023-02-23T21:04:13.299Z,55.75
2023-02-23T21:06:40.270Z,54.30
2023-02-23T21:09:12.520Z,63.03
2023-02-23T21:11:39.580Z,61.90
2023-02-23T21:14:08.381Z,57.50
2023-02-23T21:16:35.983Z,56.55
2023-02-23T21:19:05.844Z,59.30
2023-02-23T21:21:57.822Z,59.17
2023-02-23T21:24:26.286Z,59.28
2023-02-23T21:26:53.379Z,60.63
2023-02-23T21:29:24.046Z,59.65
2023-02-23T21:31:51.596Z,56.28
2023-02-23T21:34:18.885Z,64.65
2023-02-23T21:36:46.734Z,56.33
2023-02-23T21:39:14.342Z,52.80
2023-02-23T21:41:41.236Z,57.80
2023-02-23T21:44:08.837Z,60.10
2023-02-23T21:46:36.436Z,59.92
2023-02-23T21:49:09.469Z,50.65
2023-02-23T21:51:36.699Z,62.25
2023-02-23T21:54:04.428Z,54.47
2023-02-23T21:56:32.722Z,54.63
2023-02-23T21:58:59.969Z,57.90
2023-02-23T22:01:37.067Z,53.72
2023-02-23T22:04:07.824Z,56.88
2023-02-23T22:06:42.320Z,60.55
2023-02-23T22:09:11.646Z,54.63
2023-02-23T22:11:43.509Z,58.60
2023-02-23T22:14:11.249Z,59.58
2023-02-23T22:16:43.328Z,62.70
2023-02-23T22:19:12.354Z,58.42
2023-02-23T22:21:43.199Z,57.45
2023-02-23T22:24:13.232Z,58.47
2023-02-23T22:26:46.798Z,58.80
2023-02-23T22:29:14.123Z,59.25
2023-02-23T22:31:41.301Z,61.67
2023-02-23T22:34:08.457Z,65.80
2023-02-23T22:36:35.659Z,66.97
2023-02-23T22:39:07.107Z,60.75
2023-02-23T22:41:42.258Z,62.55
2023-02-23T22:44:19.200Z,58.63
2023-02-23T22:46:47.803Z,60.00
2023-02-23T22:49:15.858Z,58.25
2023-02-23T22:51:43.755Z,57.50
2023-02-23T22:54:11.833Z,63.25
2023-02-23T22:56:39.727Z,58.60
2023-02-23T22:59:08.592Z,57.42
2023-02-23T23:01:38.900Z,56.95
2023-02-23T23:04:10.347Z,60.70
2023-02-23T23:06:40.829Z,58.78
2023-02-23T23:09:16.352Z,54.53
2023-02-23T23:11:44.402Z,58.67
2023-02-23T23:14:12.544Z,66.07
2023-02-23T23:16:51.348Z,59.05
2023-02-23T23:19:25.897Z,56.70
2023-02-23T23:21:55.585Z,58.15
2023-02-23T23:24:24.324Z,48.22
2023-02-23T23:27:00.125Z,57.53
2023-02-23T23:29:30.023Z,50.72
2023-02-23T23:31:57.350Z,51.58
2023-02-23T23:34:25.157Z,50.75
2023-02-23T23:36:55.407Z,47.40
2023-02-23T23:39:25.797Z,49.35
2023-02-23T23:41:53.353Z,59.33
2023-02-23T23:44:23.816Z,51.03
2023-02-23T23:46:51.337Z,47.80
2023-02-23T23:49:21.576Z,54.13
2023-02-23T23:51:52.014Z,49.33
2023-02-23T23:54:29.206Z,46.65
2023-02-23T23:56:57.543Z,46.13
2023-02-23T23:59:26.762Z,45.65
